Time;durP1;ratioP1;P1;durP2;ratioP2;P2;SDS_P1;SDS_P2;PMS_P1;PMS_P2;Temp;Humidity;BMP_temperature;BMP_pressure;BME280_temperature;BME280_humidity;BME280_pressure;Samples;Min_cycle;Max_cycle;Signal;HPM_P1;HPM_P2
2023/02/16 00:00:00;;;;;;;2.3;2.3;;;;;;;5.7;100.0;102190;;;;
2023/02/16 00:01:01;;;;;;;2.3;2.3;;;;;;;5.6;100.0;102190;;;;
2023/02/16 00:02:00;;;;;;;2.3;2.3;;;;;;;5.6;100.0;102190;;;;
2023/02/16 00:03:00;;;;;;;2.3;2.3;;;;;;;5.6;100.0;102190;;;;
2023/02/16 00:04:01;;;;;;;2.3;2.3;;;;;;;5.6;100.0;102190;;;;
2023/02/16 00:05:00;;;;;;;2.3;2.3;;;;;;;5.5;100.0;102190;;;;
2023/02/16 00:06:00;;;;;;;1.9;1.9;;;;;;;5.5;100.0;102190;;;;
2023/02/16 00:07:00;;;;;;;1.9;1.9;;;;;;;5.6;100.0;102190;;;;
2023/02/16 00:08:00;;;;;;;1.9;1.9;;;;;;;5.6;100.0;102190;;;;
2023/02/16 00:09:00;;;;;;;1.9;1.9;;;;;;;5.5;100.0;102190;;;;
2023/02/16 00:10:01;;;;;;;1.9;1.9;;;;;;;5.5;100.0;102190;;;;
2023/02/16 00:14:00;;;;;;;1.9;1.9;;;;;;;5.5;100.0;102190;;;;
2023/02/16 00:15:00;;;;;;;1.9;1.9;;;;;;;5.5;100.0;102190;;;;
2023/02/16 00:16:00;;;;;;;1.9;1.9;;;;;;;5.5;100.0;102190;;;;
2023/02/16 00:17:00;;;;;;;1.9;1.9;;;;;;;5.6;100.0;102180;;;;
2023/02/16 00:18:01;;;;;;;1.9;1.9;;;;;;;5.6;100.0;102180;;;;
2023/02/16 00:19:00;;;;;;;1.9;1.9;;;;;;;5.5;100.0;102190;;;;
2023/02/16 00:20:00;;;;;;;1.9;1.9;;;;;;;5.5;100.0;102190;;;;
2023/02/16 00:21:00;;;;;;;1.9;1.9;;;;;;;5.5;100.0;102190;;;;
2023/02/16 00:22:00;;;;;;;1.9;1.9;;;;;;;5.5;100.0;102190;;;;
2023/02/16 00:23:00;;;;;;;1.9;1.9;;;;;;;5.5;100.0;102180;;;;
2023/02/16 00:24:00;;;;;;;1.9;1.9;;;;;;;5.5;100.0;102180;;;;
2023/02/16 00:25:00;;;;;;;1.9;1.9;;;;;;;5.4;100.0;102180;;;;
2023/02/16 00:26:00;;;;;;;2.4;2.4;;;;;;;5.4;100.0;102180;;;;
2023/02/16 00:27:00;;;;;;;2.4;2.4;;;;;;;5.4;100.0;102190;;;;
2023/02/16 00:28:03;;;;;;;2.4;2.4;;;;;;;5.4;100.0;102190;;;;
2023/02/16 00:29:00;;;;;;;2.4;2.4;;;;;;;5.4;100.0;102190;;;;
2023/02/16 00:30:00;;;;;;;2.4;2.4;;;;;;;5.4;100.0;102190;;;;
2023/02/16 00:31:00;;;;;;;2.4;2.4;;;;;;;5.4;100.0;102190;;;;
2023/02/16 00:32:01;;;;;;;2.4;2.4;;;;;;;5.4;100.0;102190;;;;
2023/02/16 00:33:00;;;;;;;2.4;2.4;;;;;;;5.4;100.0;102190;;;;
2023/02/16 00:34:10;;;;;;;2.4;2.4;;;;;;;5.4;100.0;102190;;;;
2023/02/16 00:35:00;;;;;;;2.4;2.4;;;;;;;5.5;100.0;102180;;;;
2023/02/16 00:36:00;;;;;;;2.4;2.4;;;;;;;5.5;100.0;102180;;;;
2023/02/16 00:37:02;;;;;;;2.4;2.4;;;;;;;5.4;100.0;102180;;;;
2023/02/16 00:38:00;;;;;;;2.4;2.4;;;;;;;5.4;100.0;102180;;;;
2023/02/16 00:39:00;;;;;;;2.4;2.4;;;;;;;5.3;100.0;102180;;;;
2023/02/16 00:40:00;;;;;;;2.4;2.4;;;;;;;5.3;100.0;102180;;;;
2023/02/16 00:41:00;;;;;;;2.4;2.4;;;;;;;5.4;100.0;102180;;;;
2023/02/16 00:42:02;;;;;;;2.4;2.4;;;;;;;5.4;100.0;102180;;;;
2023/02/16 00:43:00;;;;;;;2.4;2.4;;;;;;;5.3;100.0;102190;;;;
2023/02/16 00:44:00;;;;;;;2.4;2.4;;;;;;;5.3;100.0;102190;;;;
2023/02/16 00:45:00;;;;;;;2.4;2.4;;;;;;;5.3;100.0;102190;;;;
2023/02/16 00:46:00;;;;;;;2.0;2.0;;;;;;;5.3;100.0;102190;;;;
2023/02/16 00:47:01;;;;;;;2.0;2.0;;;;;;;5.3;100.0;102190;;;;
2023/02/16 00:48:00;;;;;;;2.0;2.0;;;;;;;5.3;100.0;102190;;;;
2023/02/16 00:49:00;;;;;;;2.0;2.0;;;;;;;5.3;100.0;102190;;;;
2023/02/16 00:50:00;;;;;;;2.0;2.0;;;;;;;5.3;100.0;102190;;;;
2023/02/16 00:51:00;;;;;;;2.0;2.0;;;;;;;5.2;100.0;102180;;;;
2023/02/16 00:52:00;;;;;;;2.0;2.0;;;;;;;5.2;100.0;102180;;;;
2023/02/16 00:53:01;;;;;;;2.0;2.0;;;;;;;5.3;100.0;102190;;;;
2023/02/16 00:54:00;;;;;;;2.0;2.0;;;;;;;5.3;100.0;102190;;;;
2023/02/16 00:55:02;;;;;;;2.0;2.0;;;;;;;5.2;100.0;102180;;;;
2023/02/16 00:56:00;;;;;;;2.0;2.0;;;;;;;5.2;100.0;102180;;;;
2023/02/16 00:57:00;;;;;;;2.0;2.0;;;;;;;5.2;100.0;102180;;;;
2023/02/16 00:58:10;;;;;;;2.0;2.0;;;;;;;5.2;100.0;102180;;;;
2023/02/16 00:59:01;;;;;;;2.0;2.0;;;;;;;5.2;100.0;102180;;;;
2023/02/16 01:00:05;;;;;;;2.0;2.0;;;;;;;5.2;100.0;102180;;;;
2023/02/16 01:01:05;;;;;;;2.0;2.0;;;;;;;5.2;100.0;102180;;;;
2023/02/16 01:02:00;;;;;;;2.0;2.0;;;;;;;5.2;100.0;102180;;;;
2023/02/16 01:03:01;;;;;;;2.0;2.0;;;;;;;5.2;100.0;102180;;;;
2023/02/16 01:04:01;;;;;;;2.0;2.0;;;;;;;5.2;100.0;102180;;;;
2023/02/16 01:05:00;;;;;;;2.0;2.0;;;;;;;5.2;100.0;102180;;;;
2023/02/16 01:11:09;;;;;;;3.2;3.0;;;;;;;5.1;100.0;102170;;;;
2023/02/16 01:12:01;;;;;;;3.2;3.0;;;;;;;5.1;100.0;102170;;;;
2023/02/16 01:13:00;;;;;;;3.2;3.0;;;;;;;5.1;100.0;102170;;;;
2023/02/16 01:14:00;;;;;;;3.2;3.0;;;;;;;5.1;100.0;102170;;;;
2023/02/16 01:15:00;;;;;;;3.2;3.0;;;;;;;5.1;100.0;102170;;;;
2023/02/16 01:16:00;;;;;;;3.2;3.0;;;;;;;5.1;100.0;102170;;;;
2023/02/16 01:17:00;;;;;;;3.2;3.0;;;;;;;5.2;100.0;102160;;;;
2023/02/16 01:18:00;;;;;;;3.2;3.0;;;;;;;5.2;100.0;102160;;;;
2023/02/16 01:19:00;;;;;;;3.2;3.0;;;;;;;5.1;100.0;102160;;;;
2023/02/16 01:20:00;;;;;;;3.2;3.0;;;;;;;5.1;100.0;102160;;;;
2023/02/16 01:21:00;;;;;;;3.2;3.0;;;;;;;5.0;100.0;102160;;;;
2023/02/16 01:22:00;;;;;;;3.2;3.0;;;;;;;5.0;100.0;102160;;;;
2023/02/16 01:23:00;;;;;;;3.2;3.0;;;;;;;5.1;100.0;102170;;;;
2023/02/16 01:24:00;;;;;;;3.2;3.0;;;;;;;5.1;100.0;102170;;;;
2023/02/16 01:25:00;;;;;;;2.0;2.0;;;;;;;5.1;100.0;102170;;;;
2023/02/16 01:26:00;;;;;;;2.0;2.0;;;;;;;5.1;100.0;102170;;;;
2023/02/16 01:27:01;;;;;;;2.0;2.0;;;;;;;5.1;100.0;102160;;;;
2023/02/16 01:28:00;;;;;;;2.0;2.0;;;;;;;5.1;100.0;102160;;;;
2023/02/16 01:29:00;;;;;;;2.0;2.0;;;;;;;5.1;100.0;102160;;;;
2023/02/16 01:30:00;;;;;;;2.0;2.0;;;;;;;5.1;100.0;102160;;;;
2023/02/16 01:31:01;;;;;;;2.0;2.0;;;;;;;5.1;100.0;102160;;;;
2023/02/16 01:32:00;;;;;;;2.0;2.0;;;;;;;5.1;100.0;102160;;;;
2023/02/16 01:33:00;;;;;;;2.0;2.0;;;;;;;5.0;100.0;102160;;;;
2023/02/16 01:34:00;;;;;;;2.0;2.0;;;;;;;5.0;100.0;102160;;;;
2023/02/16 01:35:00;;;;;;;2.0;2.0;;;;;;;5.0;100.0;102160;;;;
2023/02/16 01:36:00;;;;;;;2.0;2.0;;;;;;;5.0;100.0;102160;;;;
2023/02/16 01:37:00;;;;;;;2.0;2.0;;;;;;;5.1;100.0;102160;;;;
2023/02/16 01:38:00;;;;;;;2.0;2.0;;;;;;;5.1;100.0;102160;;;;
2023/02/16 01:39:00;;;;;;;2.0;2.0;;;;;;;5.0;100.0;102160;;;;
2023/02/16 01:40:01;;;;;;;2.0;2.0;;;;;;;5.0;100.0;102160;;;;
2023/02/16 01:41:09;;;;;;;2.0;2.0;;;;;;;5.1;100.0;102160;;;;
2023/02/16 01:42:10;;;;;;;2.0;2.0;;;;;;;5.1;100.0;102160;;;;
2023/02/16 01:43:03;;;;;;;2.0;2.0;;;;;;;5.1;100.0;102150;;;;
2023/02/16 01:44:00;;;;;;;2.0;2.0;;;;;;;5.1;100.0;102150;;;;
2023/02/16 01:45:08;;;;;;;1.8;1.8;;;;;;;5.0;100.0;102150;;;;
2023/02/16 01:46:00;;;;;;;1.8;1.8;;;;;;;5.0;100.0;102150;;;;
2023/02/16 01:47:10;;;;;;;1.8;1.8;;;;;;;5.1;100.0;102150;;;;
2023/02/16 01:48:04;;;;;;;1.8;1.8;;;;;;;5.1;100.0;102150;;;;
2023/02/16 01:49:00;;;;;;;1.8;1.8;;;;;;;5.0;100.0;102150;;;;
2023/02/16 01:50:10;;;;;;;1.8;1.8;;;;;;;5.0;100.0;102150;;;;
2023/02/16 01:51:00;;;;;;;1.8;1.8;;;;;;;5.0;100.0;102140;;;;
2023/02/16 01:52:10;;;;;;;1.8;1.8;;;;;;;5.0;100.0;102140;;;;
2023/02/16 01:53:00;;;;;;;1.8;1.8;;;;;;;5.1;100.0;102140;;;;
2023/02/16 01:54:01;;;;;;;1.8;1.8;;;;;;;5.1;100.0;102140;;;;
2023/02/16 01:55:04;;;;;;;1.8;1.8;;;;;;;5.1;100.0;102130;;;;
2023/02/16 01:56:04;;;;;;;1.8;1.8;;;;;;;5.1;100.0;102130;;;;
2023/02/16 01:57:03;;;;;;;1.8;1.8;;;;;;;5.1;100.0;102120;;;;
2023/02/16 01:58:04;;;;;;;1.8;1.8;;;;;;;5.1;100.0;102120;;;;
2023/02/16 01:59:08;;;;;;;1.8;1.8;;;;;;;5.0;100.0;102120;;;;
2023/02/16 02:00:03;;;;;;;1.8;1.8;;;;;;;5.0;100.0;102120;;;;
2023/02/16 02:01:00;;;;;;;1.8;1.8;;;;;;;5.0;100.0;102120;;;;
2023/02/16 02:02:02;;;;;;;1.8;1.8;;;;;;;5.0;100.0;102120;;;;
2023/02/16 02:06:00;;;;;;;1.9;1.9;;;;;;;4.9;100.0;102120;;;;
2023/02/16 02:07:00;;;;;;;1.9;1.9;;;;;;;4.9;100.0;102120;;;;
2023/02/16 02:08:10;;;;;;;1.9;1.9;;;;;;;4.9;100.0;102120;;;;
2023/02/16 02:09:10;;;;;;;1.9;1.9;;;;;;;4.9;100.0;102130;;;;
2023/02/16 02:10:07;;;;;;;1.9;1.9;;;;;;;4.9;100.0;102130;;;;
2023/02/16 02:11:07;;;;;;;1.9;1.9;;;;;;;4.8;100.0;102130;;;;
2023/02/16 02:12:08;;;;;;;1.9;1.9;;;;;;;4.8;100.0;102130;;;;
2023/02/16 02:13:01;;;;;;;1.9;1.9;;;;;;;4.8;100.0;102130;;;;
2023/02/16 02:14:07;;;;;;;1.9;1.9;;;;;;;4.8;100.0;102130;;;;
2023/02/16 02:15:00;;;;;;;1.9;1.9;;;;;;;4.7;100.0;102130;;;;
2023/02/16 02:16:01;;;;;;;1.9;1.9;;;;;;;4.7;100.0;102130;;;;
2023/02/16 02:17:04;;;;;;;1.9;1.9;;;;;;;4.7;100.0;102130;;;;
2023/02/16 02:18:01;;;;;;;1.9;1.9;;;;;;;4.7;100.0;102130;;;;
2023/02/16 02:19:00;;;;;;;1.9;1.9;;;;;;;4.8;100.0;102120;;;;
2023/02/16 02:20:07;;;;;;;1.9;1.9;;;;;;;4.8;100.0;102120;;;;
2023/02/16 02:24:10;;;;;;;1.9;1.9;;;;;;;4.8;100.0;102120;;;;
2023/02/16 02:25:10;;;;;;;2.8;2.7;;;;;;;4.7;100.0;102120;;;;
2023/02/16 02:26:01;;;;;;;2.8;2.7;;;;;;;4.7;100.0;102120;;;;
2023/02/16 02:27:01;;;;;;;2.8;2.7;;;;;;;4.7;100.0;102120;;;;
2023/02/16 02:28:10;;;;;;;2.8;2.7;;;;;;;4.7;100.0;102120;;;;
2023/02/16 02:29:10;;;;;;;2.8;2.7;;;;;;;4.7;100.0;102110;;;;
2023/02/16 02:30:07;;;;;;;2.8;2.7;;;;;;;4.7;100.0;102110;;;;
2023/02/16 02:31:04;;;;;;;2.8;2.7;;;;;;;4.6;100.0;102110;;;;
2023/02/16 02:32:10;;;;;;;2.8;2.7;;;;;;;4.6;100.0;102110;;;;
2023/02/16 02:33:03;;;;;;;2.8;2.7;;;;;;;4.6;100.0;102120;;;;
2023/02/16 02:34:10;;;;;;;2.8;2.7;;;;;;;4.6;100.0;102120;;;;
2023/02/16 02:35:10;;;;;;;2.8;2.7;;;;;;;4.6;100.0;102120;;;;
2023/02/16 02:36:10;;;;;;;2.8;2.7;;;;;;;4.6;100.0;102120;;;;
2023/02/16 02:37:08;;;;;;;2.8;2.7;;;;;;;4.6;100.0;102120;;;;
2023/02/16 02:38:03;;;;;;;2.8;2.7;;;;;;;4.6;100.0;102120;;;;
2023/02/16 02:39:08;;;;;;;2.8;2.7;;;;;;;4.5;100.0;102110;;;;
2023/02/16 02:40:00;;;;;;;2.8;2.7;;;;;;;4.5;100.0;102110;;;;
2023/02/16 02:41:04;;;;;;;2.8;2.7;;;;;;;4.6;100.0;102110;;;;
2023/02/16 02:42:07;;;;;;;2.8;2.7;;;;;;;4.6;100.0;102110;;;;
2023/02/16 02:43:10;;;;;;;2.8;2.7;;;;;;;4.5;100.0;102110;;;;
2023/02/16 02:44:03;;;;;;;2.8;2.7;;;;;;;4.5;100.0;102110;;;;
2023/02/16 02:45:06;;;;;;;2.5;2.4;;;;;;;4.6;100.0;102110;;;;
2023/02/16 02:46:10;;;;;;;2.5;2.4;;;;;;;4.6;100.0;102110;;;;
2023/02/16 02:47:00;;;;;;;2.5;2.4;;;;;;;4.6;100.0;102110;;;;
2023/02/16 02:48:00;;;;;;;2.5;2.4;;;;;;;4.6;100.0;102110;;;;
2023/02/16 02:49:00;;;;;;;2.5;2.4;;;;;;;4.5;100.0;102100;;;;
2023/02/16 02:50:00;;;;;;;2.5;2.4;;;;;;;4.5;100.0;102100;;;;
2023/02/16 02:52:00;;;;;;;2.5;2.4;;;;;;;4.5;100.0;102100;;;;
2023/02/16 02:53:02;;;;;;;2.5;2.4;;;;;;;4.6;100.0;102100;;;;
2023/02/16 03:01:00;;;;;;;2.5;2.4;;;;;;;4.5;100.0;102080;;;;
2023/02/16 03:02:01;;;;;;;2.5;2.4;;;;;;;4.5;100.0;102080;;;;
2023/02/16 03:03:06;;;;;;;2.5;2.4;;;;;;;4.4;100.0;102080;;;;
2023/02/16 03:04:01;;;;;;;2.5;2.4;;;;;;;4.4;100.0;102080;;;;
2023/02/16 03:05:02;;;;;;;3.3;3.2;;;;;;;4.5;100.0;102080;;;;
2023/02/16 03:06:01;;;;;;;3.3;3.2;;;;;;;4.5;100.0;102080;;;;
2023/02/16 03:07:02;;;;;;;3.3;3.2;;;;;;;4.6;100.0;102080;;;;
2023/02/16 03:08:05;;;;;;;3.3;3.2;;;;;;;4.6;100.0;102080;;;;
2023/02/16 03:09:03;;;;;;;3.3;3.2;;;;;;;4.5;100.0;102080;;;;
2023/02/16 03:12:44;;;;;;;3.3;3.2;;;;;;;4.5;100.0;102080;;;;
2023/02/16 03:13:00;;;;;;;3.3;3.2;;;;;;;4.5;100.0;102080;;;;
2023/02/16 03:14:04;;;;;;;3.3;3.2;;;;;;;4.5;100.0;102080;;;;
2023/02/16 03:15:00;;;;;;;3.3;3.2;;;;;;;4.5;100.0;102080;;;;
2023/02/16 03:16:02;;;;;;;3.3;3.2;;;;;;;4.5;100.0;102080;;;;
2023/02/16 03:30:01;;;;;;;2.4;2.4;;;;;;;4.3;100.0;102080;;;;
2023/02/16 03:31:02;;;;;;;2.4;2.4;;;;;;;4.5;100.0;102080;;;;
2023/02/16 03:32:01;;;;;;;2.4;2.4;;;;;;;4.5;100.0;102080;;;;
2023/02/16 03:33:00;;;;;;;2.4;2.4;;;;;;;4.5;100.0;102070;;;;
2023/02/16 03:34:00;;;;;;;2.4;2.4;;;;;;;4.5;100.0;102070;;;;
2023/02/16 03:35:00;;;;;;;2.4;2.4;;;;;;;4.3;100.0;102070;;;;
2023/02/16 03:36:01;;;;;;;2.4;2.4;;;;;;;4.3;100.0;102070;;;;
2023/02/16 03:37:00;;;;;;;2.4;2.4;;;;;;;4.4;100.0;102070;;;;
2023/02/16 03:38:00;;;;;;;2.4;2.4;;;;;;;4.4;100.0;102070;;;;
2023/02/16 03:39:01;;;;;;;2.4;2.4;;;;;;;4.3;100.0;102060;;;;
2023/02/16 03:41:00;;;;;;;2.4;2.4;;;;;;;4.3;100.0;102070;;;;
2023/02/16 03:42:00;;;;;;;2.4;2.4;;;;;;;4.3;100.0;102070;;;;
2023/02/16 03:43:02;;;;;;;2.4;2.4;;;;;;;4.3;100.0;102070;;;;
2023/02/16 03:44:00;;;;;;;2.4;2.4;;;;;;;4.3;100.0;102070;;;;
2023/02/16 03:45:00;;;;;;;2.0;2.0;;;;;;;4.2;100.0;102060;;;;
2023/02/16 03:46:00;;;;;;;2.0;2.0;;;;;;;4.2;100.0;102060;;;;
2023/02/16 03:47:00;;;;;;;2.0;2.0;;;;;;;4.2;100.0;102070;;;;
2023/02/16 03:48:00;;;;;;;2.0;2.0;;;;;;;4.2;100.0;102070;;;;
2023/02/16 03:49:00;;;;;;;2.0;2.0;;;;;;;4.1;100.0;102070;;;;
2023/02/16 03:50:00;;;;;;;2.0;2.0;;;;;;;4.1;100.0;102070;;;;
2023/02/16 03:51:00;;;;;;;2.0;2.0;;;;;;;4.2;100.0;102070;;;;
2023/02/16 03:52:00;;;;;;;2.0;2.0;;;;;;;4.2;100.0;102070;;;;
2023/02/16 03:53:07;;;;;;;2.0;2.0;;;;;;;4.2;100.0;102070;;;;
2023/02/16 03:54:00;;;;;;;2.0;2.0;;;;;;;4.2;100.0;102070;;;;
2023/02/16 03:55:00;;;;;;;2.0;2.0;;;;;;;4.1;100.0;102060;;;;
2023/02/16 03:56:00;;;;;;;2.0;2.0;;;;;;;4.1;100.0;102060;;;;
2023/02/16 03:57:00;;;;;;;2.0;2.0;;;;;;;4.1;100.0;102070;;;;
2023/02/16 03:58:00;;;;;;;2.0;2.0;;;;;;;4.1;100.0;102070;;;;
2023/02/16 03:59:00;;;;;;;2.0;2.0;;;;;;;4.1;100.0;102060;;;;
2023/02/16 04:00:00;;;;;;;2.0;2.0;;;;;;;4.1;100.0;102060;;;;
2023/02/16 04:01:00;;;;;;;2.0;2.0;;;;;;;4.2;100.0;102060;;;;
2023/02/16 04:02:00;;;;;;;2.0;2.0;;;;;;;4.2;100.0;102060;;;;
2023/02/16 04:03:01;;;;;;;2.0;2.0;;;;;;;4.2;100.0;102060;;;;
2023/02/16 04:04:00;;;;;;;2.0;2.0;;;;;;;4.2;100.0;102060;;;;
2023/02/16 04:05:00;;;;;;;2.3;2.3;;;;;;;4.1;100.0;102060;;;;
2023/02/16 04:06:00;;;;;;;2.3;2.3;;;;;;;4.1;100.0;102060;;;;
2023/02/16 04:07:00;;;;;;;2.3;2.3;;;;;;;4.2;100.0;102070;;;;
2023/02/16 04:08:00;;;;;;;2.3;2.3;;;;;;;4.2;100.0;102070;;;;
2023/02/16 04:09:00;;;;;;;2.3;2.3;;;;;;;4.2;100.0;102070;;;;
2023/02/16 04:10:00;;;;;;;2.3;2.3;;;;;;;4.2;100.0;102070;;;;
2023/02/16 04:12:34;;;;;;;2.3;2.3;;;;;;;4.3;100.0;102070;;;;
2023/02/16 04:13:00;;;;;;;2.3;2.3;;;;;;;4.2;100.0;102070;;;;
2023/02/16 04:14:00;;;;;;;2.3;2.3;;;;;;;4.2;100.0;102070;;;;
2023/02/16 04:15:00;;;;;;;2.3;2.3;;;;;;;4.3;100.0;102080;;;;
2023/02/16 04:16:00;;;;;;;2.3;2.3;;;;;;;4.3;100.0;102080;;;;
2023/02/16 04:17:00;;;;;;;2.3;2.3;;;;;;;4.2;100.0;102080;;;;
2023/02/16 04:18:00;;;;;;;2.3;2.3;;;;;;;4.2;100.0;102080;;;;
2023/02/16 04:19:00;;;;;;;2.3;2.3;;;;;;;4.3;100.0;102080;;;;
2023/02/16 04:20:00;;;;;;;2.3;2.3;;;;;;;4.3;100.0;102080;;;;
2023/02/16 04:21:00;;;;;;;2.3;2.3;;;;;;;4.3;100.0;102080;;;;
2023/02/16 04:22:00;;;;;;;2.3;2.3;;;;;;;4.3;100.0;102080;;;;
2023/02/16 04:23:00;;;;;;;2.3;2.3;;;;;;;4.4;100.0;102080;;;;
2023/02/16 04:24:01;;;;;;;2.3;2.3;;;;;;;4.4;100.0;102080;;;;
2023/02/16 04:25:00;;;;;;;2.1;2.1;;;;;;;4.3;100.0;102080;;;;
2023/02/16 04:26:00;;;;;;;2.1;2.1;;;;;;;4.3;100.0;102080;;;;
2023/02/16 04:27:00;;;;;;;2.1;2.1;;;;;;;4.3;100.0;102080;;;;
2023/02/16 04:28:00;;;;;;;2.1;2.1;;;;;;;4.3;100.0;102080;;;;
2023/02/16 04:29:00;;;;;;;2.1;2.1;;;;;;;4.3;100.0;102070;;;;
2023/02/16 04:30:00;;;;;;;2.1;2.1;;;;;;;4.3;100.0;102070;;;;
2023/02/16 04:31:00;;;;;;;2.1;2.1;;;;;;;4.4;100.0;102080;;;;
2023/02/16 04:32:00;;;;;;;2.1;2.1;;;;;;;4.4;100.0;102080;;;;
2023/02/16 04:33:00;;;;;;;2.1;2.1;;;;;;;4.3;100.0;102070;;;;
2023/02/16 04:34:00;;;;;;;2.1;2.1;;;;;;;4.3;100.0;102070;;;;
2023/02/16 04:35:00;;;;;;;2.1;2.1;;;;;;;4.3;100.0;102080;;;;
2023/02/16 04:36:00;;;;;;;2.1;2.1;;;;;;;4.3;100.0;102080;;;;
2023/02/16 04:37:01;;;;;;;2.1;2.1;;;;;;;4.3;100.0;102080;;;;
2023/02/16 04:38:00;;;;;;;2.1;2.1;;;;;;;4.3;100.0;102080;;;;
2023/02/16 04:39:00;;;;;;;2.1;2.1;;;;;;;4.2;100.0;102080;;;;
2023/02/16 04:40:00;;;;;;;2.1;2.1;;;;;;;4.2;100.0;102080;;;;
2023/02/16 04:41:00;;;;;;;2.1;2.1;;;;;;;4.3;100.0;102080;;;;
2023/02/16 04:42:00;;;;;;;2.1;2.1;;;;;;;4.3;100.0;102080;;;;
2023/02/16 04:43:00;;;;;;;2.1;2.1;;;;;;;4.3;100.0;102080;;;;
2023/02/16 04:44:00;;;;;;;2.1;2.1;;;;;;;4.3;100.0;102080;;;;
2023/02/16 04:45:00;;;;;;;2.2;2.2;;;;;;;4.3;100.0;102070;;;;
2023/02/16 04:46:00;;;;;;;2.2;2.2;;;;;;;4.3;100.0;102070;;;;
2023/02/16 04:47:00;;;;;;;2.2;2.2;;;;;;;4.4;100.0;102080;;;;
2023/02/16 04:48:00;;;;;;;2.2;2.2;;;;;;;4.4;100.0;102080;;;;
2023/02/16 04:49:00;;;;;;;2.2;2.2;;;;;;;4.3;100.0;102080;;;;
2023/02/16 04:50:00;;;;;;;2.2;2.2;;;;;;;4.3;100.0;102080;;;;
2023/02/16 04:51:02;;;;;;;2.2;2.2;;;;;;;4.3;100.0;102080;;;;
2023/02/16 04:52:02;;;;;;;2.2;2.2;;;;;;;4.3;100.0;102080;;;;
2023/02/16 04:53:00;;;;;;;2.2;2.2;;;;;;;4.3;100.0;102090;;;;
2023/02/16 04:54:00;;;;;;;2.2;2.2;;;;;;;4.3;100.0;102090;;;;
2023/02/16 04:55:00;;;;;;;2.2;2.2;;;;;;;4.2;100.0;102090;;;;
2023/02/16 04:56:00;;;;;;;2.2;2.2;;;;;;;4.2;100.0;102090;;;;
2023/02/16 04:57:00;;;;;;;2.2;2.2;;;;;;;4.3;100.0;102090;;;;
2023/02/16 04:58:00;;;;;;;2.2;2.2;;;;;;;4.3;100.0;102090;;;;
2023/02/16 04:59:00;;;;;;;2.2;2.2;;;;;;;4.4;100.0;102070;;;;
2023/02/16 05:00:00;;;;;;;2.2;2.2;;;;;;;4.4;100.0;102070;;;;
2023/02/16 05:01:00;;;;;;;2.2;2.2;;;;;;;4.4;100.0;102070;;;;
2023/02/16 05:02:00;;;;;;;2.2;2.2;;;;;;;4.4;100.0;102070;;;;
2023/02/16 05:03:00;;;;;;;2.2;2.2;;;;;;;4.3;100.0;102080;;;;
2023/02/16 05:04:00;;;;;;;2.2;2.2;;;;;;;4.3;100.0;102080;;;;
2023/02/16 05:05:00;;;;;;;2.7;2.6;;;;;;;4.3;100.0;102070;;;;
2023/02/16 05:06:00;;;;;;;2.7;2.6;;;;;;;4.3;100.0;102070;;;;
2023/02/16 05:07:00;;;;;;;2.7;2.6;;;;;;;4.4;100.0;102080;;;;
2023/02/16 05:08:01;;;;;;;2.7;2.6;;;;;;;4.4;100.0;102080;;;;
2023/02/16 05:09:00;;;;;;;2.7;2.6;;;;;;;4.4;100.0;102070;;;;
2023/02/16 05:10:00;;;;;;;2.7;2.6;;;;;;;4.4;100.0;102070;;;;
2023/02/16 05:15:00;;;;;;;2.7;2.6;;;;;;;4.6;100.0;102060;;;;
2023/02/16 05:16:00;;;;;;;2.7;2.6;;;;;;;4.6;100.0;102060;;;;
2023/02/16 05:17:00;;;;;;;2.7;2.6;;;;;;;4.5;100.0;102070;;;;
2023/02/16 05:18:00;;;;;;;2.7;2.6;;;;;;;4.5;100.0;102070;;;;
2023/02/16 05:19:00;;;;;;;2.7;2.6;;;;;;;4.5;100.0;102070;;;;
2023/02/16 05:20:00;;;;;;;2.7;2.6;;;;;;;4.5;100.0;102070;;;;
2023/02/16 05:22:00;;;;;;;2.7;2.6;;;;;;;4.5;100.0;102080;;;;
2023/02/16 05:23:00;;;;;;;2.7;2.6;;;;;;;4.6;100.0;102060;;;;
2023/02/16 05:24:01;;;;;;;2.2;2.2;;;;;;;4.6;100.0;102060;;;;
2023/02/16 05:25:00;;;;;;;2.2;2.2;;;;;;;4.5;100.0;102070;;;;
2023/02/16 05:26:00;;;;;;;2.2;2.2;;;;;;;4.5;100.0;102070;;;;
2023/02/16 05:27:01;;;;;;;2.2;2.2;;;;;;;4.5;100.0;102060;;;;
2023/02/16 05:28:00;;;;;;;2.2;2.2;;;;;;;4.5;100.0;102060;;;;
2023/02/16 05:29:00;;;;;;;2.2;2.2;;;;;;;4.6;100.0;102070;;;;
2023/02/16 05:30:00;;;;;;;2.2;2.2;;;;;;;4.6;100.0;102070;;;;
2023/02/16 05:31:00;;;;;;;2.2;2.2;;;;;;;4.5;100.0;102060;;;;
2023/02/16 05:32:04;;;;;;;2.2;2.2;;;;;;;4.5;100.0;102060;;;;
2023/02/16 05:33:00;;;;;;;2.2;2.2;;;;;;;4.6;100.0;102070;;;;
2023/02/16 05:34:00;;;;;;;2.2;2.2;;;;;;;4.6;100.0;102070;;;;
2023/02/16 05:35:00;;;;;;;2.2;2.2;;;;;;;4.6;100.0;102060;;;;
2023/02/16 05:36:00;;;;;;;2.2;2.2;;;;;;;4.6;100.0;102060;;;;
2023/02/16 05:37:00;;;;;;;2.2;2.2;;;;;;;4.6;100.0;102070;;;;
2023/02/16 05:38:00;;;;;;;2.2;2.2;;;;;;;4.6;100.0;102070;;;;
2023/02/16 05:39:00;;;;;;;2.2;2.2;;;;;;;4.5;100.0;102060;;;;
2023/02/16 05:40:00;;;;;;;2.2;2.2;;;;;;;4.5;100.0;102060;;;;
2023/02/16 05:41:00;;;;;;;2.2;2.2;;;;;;;4.6;100.0;102070;;;;
2023/02/16 05:42:00;;;;;;;2.2;2.2;;;;;;;4.6;100.0;102070;;;;
2023/02/16 05:43:00;;;;;;;2.2;2.2;;;;;;;4.6;100.0;102080;;;;
2023/02/16 05:44:01;;;;;;;2.2;2.2;;;;;;;4.6;100.0;102080;;;;
2023/02/16 05:45:01;;;;;;;2.2;2.2;;;;;;;4.6;100.0;102070;;;;
2023/02/16 05:46:06;;;;;;;2.2;2.2;;;;;;;4.6;100.0;102070;;;;
2023/02/16 05:47:00;;;;;;;2.2;2.2;;;;;;;4.7;100.0;102070;;;;
2023/02/16 05:48:00;;;;;;;2.2;2.2;;;;;;;4.7;100.0;102070;;;;
2023/02/16 05:49:00;;;;;;;2.2;2.2;;;;;;;4.7;100.0;102070;;;;
2023/02/16 05:50:00;;;;;;;2.2;2.2;;;;;;;4.7;100.0;102070;;;;
2023/02/16 05:51:00;;;;;;;2.2;2.2;;;;;;;4.6;100.0;102070;;;;
2023/02/16 05:52:00;;;;;;;2.2;2.2;;;;;;;4.6;100.0;102070;;;;
2023/02/16 05:53:00;;;;;;;2.2;2.2;;;;;;;4.6;100.0;102070;;;;
2023/02/16 05:54:00;;;;;;;2.2;2.2;;;;;;;4.6;100.0;102070;;;;
2023/02/16 05:55:00;;;;;;;2.2;2.2;;;;;;;4.8;100.0;102060;;;;
2023/02/16 05:56:00;;;;;;;2.2;2.2;;;;;;;4.8;100.0;102060;;;;
2023/02/16 05:57:00;;;;;;;2.2;2.2;;;;;;;4.8;100.0;102060;;;;
2023/02/16 05:58:00;;;;;;;2.2;2.2;;;;;;;4.8;100.0;102060;;;;
2023/02/16 05:59:00;;;;;;;2.2;2.2;;;;;;;4.8;100.0;102060;;;;
2023/02/16 06:00:00;;;;;;;2.2;2.2;;;;;;;4.8;100.0;102060;;;;
2023/02/16 06:01:00;;;;;;;2.2;2.2;;;;;;;4.7;100.0;102060;;;;
2023/02/16 06:02:00;;;;;;;2.2;2.2;;;;;;;4.7;100.0;102060;;;;
2023/02/16 06:03:00;;;;;;;2.2;2.2;;;;;;;4.8;100.0;102050;;;;
2023/02/16 06:04:00;;;;;;;2.0;2.0;;;;;;;4.8;100.0;102050;;;;
2023/02/16 06:05:00;;;;;;;2.0;2.0;;;;;;;4.8;100.0;102050;;;;
2023/02/16 06:06:01;;;;;;;2.0;2.0;;;;;;;4.8;100.0;102050;;;;
2023/02/16 06:07:00;;;;;;;2.0;2.0;;;;;;;4.7;100.0;102040;;;;
2023/02/16 06:08:00;;;;;;;2.0;2.0;;;;;;;4.7;100.0;102040;;;;
2023/02/16 06:09:00;;;;;;;2.0;2.0;;;;;;;4.8;100.0;102040;;;;
2023/02/16 06:10:00;;;;;;;2.0;2.0;;;;;;;4.8;100.0;102040;;;;
2023/02/16 06:11:00;;;;;;;2.0;2.0;;;;;;;4.8;100.0;102030;;;;
2023/02/16 06:12:00;;;;;;;2.0;2.0;;;;;;;4.8;100.0;102030;;;;
2023/02/16 06:13:00;;;;;;;2.0;2.0;;;;;;;4.8;100.0;102040;;;;
2023/02/16 06:14:01;;;;;;;2.0;2.0;;;;;;;4.8;100.0;102040;;;;
2023/02/16 06:15:00;;;;;;;2.0;2.0;;;;;;;5.0;100.0;102040;;;;
2023/02/16 06:16:00;;;;;;;2.0;2.0;;;;;;;5.0;100.0;102040;;;;
2023/02/16 06:17:00;;;;;;;2.0;2.0;;;;;;;4.8;100.0;102040;;;;
2023/02/16 06:18:02;;;;;;;2.0;2.0;;;;;;;4.8;100.0;102040;;;;
2023/02/16 06:19:00;;;;;;;2.0;2.0;;;;;;;4.7;100.0;102040;;;;
2023/02/16 06:20:00;;;;;;;2.0;2.0;;;;;;;4.7;100.0;102040;;;;
2023/02/16 06:21:00;;;;;;;2.0;2.0;;;;;;;4.8;100.0;102050;;;;
2023/02/16 06:22:00;;;;;;;2.0;2.0;;;;;;;4.8;100.0;102050;;;;
2023/02/16 06:23:00;;;;;;;2.0;2.0;;;;;;;4.8;100.0;102050;;;;
2023/02/16 06:24:00;;;;;;;2.1;2.1;;;;;;;4.8;100.0;102050;;;;
2023/02/16 06:25:00;;;;;;;2.1;2.1;;;;;;;4.8;100.0;102060;;;;
2023/02/16 06:26:00;;;;;;;2.1;2.1;;;;;;;4.8;100.0;102060;;;;
2023/02/16 06:27:00;;;;;;;2.1;2.1;;;;;;;4.9;100.0;102050;;;;
2023/02/16 06:28:00;;;;;;;2.1;2.1;;;;;;;4.9;100.0;102050;;;;
2023/02/16 06:29:00;;;;;;;2.1;2.1;;;;;;;4.8;100.0;102060;;;;
2023/02/16 06:30:01;;;;;;;2.1;2.1;;;;;;;4.8;100.0;102060;;;;
2023/02/16 06:31:00;;;;;;;2.1;2.1;;;;;;;4.9;100.0;102040;;;;
2023/02/16 06:32:00;;;;;;;2.1;2.1;;;;;;;4.9;100.0;102040;;;;
2023/02/16 06:33:01;;;;;;;2.1;2.1;;;;;;;4.8;100.0;102040;;;;
2023/02/16 06:34:02;;;;;;;2.1;2.1;;;;;;;4.8;100.0;102040;;;;
2023/02/16 06:35:00;;;;;;;2.1;2.1;;;;;;;4.9;100.0;102050;;;;
2023/02/16 06:36:00;;;;;;;2.1;2.1;;;;;;;4.9;100.0;102050;;;;
2023/02/16 06:37:00;;;;;;;2.1;2.1;;;;;;;5.0;100.0;102050;;;;
2023/02/16 06:38:00;;;;;;;2.1;2.1;;;;;;;5.0;100.0;102050;;;;
2023/02/16 06:39:00;;;;;;;2.1;2.1;;;;;;;4.9;100.0;102050;;;;
2023/02/16 06:40:00;;;;;;;2.1;2.1;;;;;;;4.9;100.0;102050;;;;
2023/02/16 06:41:00;;;;;;;2.1;2.1;;;;;;;5.0;100.0;102050;;;;
2023/02/16 06:42:00;;;;;;;2.1;2.1;;;;;;;5.0;100.0;102050;;;;
2023/02/16 06:43:00;;;;;;;2.1;2.1;;;;;;;5.0;100.0;102060;;;;
2023/02/16 06:44:01;;;;;;;1.8;1.8;;;;;;;5.0;100.0;102060;;;;
2023/02/16 06:45:00;;;;;;;1.8;1.8;;;;;;;5.0;100.0;102060;;;;
2023/02/16 06:46:00;;;;;;;1.8;1.8;;;;;;;5.0;100.0;102060;;;;
2023/02/16 06:47:00;;;;;;;1.8;1.8;;;;;;;5.0;100.0;102070;;;;
2023/02/16 06:48:00;;;;;;;1.8;1.8;;;;;;;5.0;100.0;102070;;;;
2023/02/16 06:49:00;;;;;;;1.8;1.8;;;;;;;4.9;100.0;102080;;;;
2023/02/16 06:50:01;;;;;;;1.8;1.8;;;;;;;4.9;100.0;102080;;;;
2023/02/16 06:51:00;;;;;;;1.8;1.8;;;;;;;4.9;100.0;102080;;;;
2023/02/16 06:52:00;;;;;;;1.8;1.8;;;;;;;4.9;100.0;102080;;;;
2023/02/16 06:53:00;;;;;;;1.8;1.8;;;;;;;4.9;100.0;102080;;;;
2023/02/16 06:54:00;;;;;;;1.8;1.8;;;;;;;4.9;100.0;102080;;;;
2023/02/16 06:55:00;;;;;;;1.8;1.8;;;;;;;4.9;100.0;102080;;;;
2023/02/16 06:56:00;;;;;;;1.8;1.8;;;;;;;4.9;100.0;102080;;;;
2023/02/16 06:57:00;;;;;;;1.8;1.8;;;;;;;5.0;100.0;102070;;;;
2023/02/16 06:58:00;;;;;;;1.8;1.8;;;;;;;5.0;100.0;102070;;;;
2023/02/16 06:59:01;;;;;;;1.8;1.8;;;;;;;4.9;100.0;102070;;;;
2023/02/16 07:00:00;;;;;;;1.8;1.8;;;;;;;4.9;100.0;102070;;;;
2023/02/16 07:01:00;;;;;;;1.8;1.8;;;;;;;4.9;100.0;102070;;;;
2023/02/16 07:02:00;;;;;;;1.8;1.8;;;;;;;4.9;100.0;102070;;;;
2023/02/16 07:03:00;;;;;;;1.8;1.8;;;;;;;4.9;100.0;102070;;;;
2023/02/16 07:04:00;;;;;;;3.3;3.1;;;;;;;4.9;100.0;102070;;;;
2023/02/16 07:05:00;;;;;;;3.3;3.1;;;;;;;5.0;100.0;102070;;;;
2023/02/16 07:06:00;;;;;;;3.3;3.1;;;;;;;5.0;100.0;102070;;;;
2023/02/16 07:07:00;;;;;;;3.3;3.1;;;;;;;5.0;100.0;102070;;;;
2023/02/16 07:08:00;;;;;;;3.3;3.1;;;;;;;5.0;100.0;102070;;;;
2023/02/16 07:09:00;;;;;;;3.3;3.1;;;;;;;5.1;100.0;102070;;;;
2023/02/16 07:10:01;;;;;;;3.3;3.1;;;;;;;5.1;100.0;102070;;;;
2023/02/16 07:11:00;;;;;;;3.3;3.1;;;;;;;5.0;100.0;102070;;;;
2023/02/16 07:12:00;;;;;;;3.3;3.1;;;;;;;5.0;100.0;102070;;;;
2023/02/16 07:13:00;;;;;;;3.3;3.1;;;;;;;5.2;100.0;102070;;;;